Disclaimer

Please do not use the information listed here in-flight or in-navigation, as they are not provided to us by the airports but are provided by volunteers, so they might be outdated.

Search


Regions


Airport information page

Radio informations:
Tower (TWR) - 118.6 MHz

Airport informations:
Latitude: 21° 02' 11.50" N
Longitude: 086° 52' 37.50" W
Elevation: 20 feet - 6 meters
Operating hours: 24 hour operations
Operating agency: Civil government, landing fees and diplomatic clearance may be required
Timezone: UTC-6(-5DT) - First Sunday in April to the last Saturday in October
Fuel: Jet A1, without icing nhibitor.

100/130 MIL Spec, low lead, aviation gasoline (BLUE)

Runway information:
12/30 - 11483 x 197 feet< - >3500 x 60 meters

Recent METARs:
MMUN 191646Z 35003KT 7SM BKN015 28/23 A3006 RMK 8/100 ISOL MDT CU SC
MMUN 191646Z 35003KT 7SM BKN015 28/23 A3006 RMK 8/100 ISOL MDT CU SC
MMUN 191749Z 36004KT 7SM BKN015 28/23 A3003 RMK SLP172 58009 962 8/100 MDT CU SC

Airport on the map: